Time;durP1;ratioP1;P1;durP2;ratioP2;P2;SDS_P1;SDS_P2;PMS_P1;PMS_P2;Temp;Humidity;BMP_temperature;BMP_pressure;BME280_temperature;BME280_humidity;BME280_pressure;Samples;Min_cycle;Max_cycle;Signal;HPM_P1;HPM_P2
2023/07/06 00:02:07;;;;;;;3.53;3.23;;;;;;;11.11;100.00;97082.63;4999219;28;20315;-63
2023/07/06 00:04:36;;;;;;;3.83;3.63;;;;;;;11.06;100.00;97084.19;4994158;28;20237;-63
2023/07/06 00:07:05;;;;;;;3.60;3.30;;;;;;;11.08;100.00;97077.72;4987930;28;20267;-64
2023/07/06 00:09:35;;;;;;;5.20;3.80;;;;;;;11.06;100.00;97082.38;4996436;28;20228;-62
2023/07/06 00:12:03;;;;;;;3.97;3.67;;;;;;;11.04;100.00;97075.63;4994874;28;20231;-64
2023/07/06 00:14:31;;;;;;;3.67;3.37;;;;;;;11.05;100.00;97077.25;4989982;28;20251;-63
2023/07/06 00:17:12;;;;;;;4.17;3.87;;;;;;;11.03;100.00;97076.63;4999153;28;20217;-62
2023/07/06 00:19:40;;;;;;;4.40;4.10;;;;;;;10.97;100.00;97081.69;4997633;28;20212;-63
2023/07/06 00:22:11;;;;;;;3.83;3.53;;;;;;;10.92;100.00;97077.94;4994020;28;20224;-62
2023/07/06 00:24:40;;;;;;;3.20;3.00;;;;;;;10.87;100.00;97070.56;4987827;28;20343;-63
2023/07/06 00:27:08;;;;;;;3.87;3.50;;;;;;;10.91;100.00;97073.66;4996875;28;20205;-63
2023/07/06 00:29:45;;;;;;;3.87;3.50;;;;;;;10.92;100.00;97073.47;4993476;28;20620;-62
2023/07/06 00:32:26;;;;;;;3.97;3.57;;;;;;;10.84;100.00;97070.94;4997613;28;20232;-63
2023/07/06 00:34:54;;;;;;;3.50;3.30;;;;;;;10.79;100.00;97075.97;4998085;28;20201;-63
2023/07/06 00:37:24;;;;;;;4.30;3.90;;;;;;;10.74;100.00;97071.25;4990490;28;20209;-62
2023/07/06 00:39:52;;;;;;;3.40;3.20;;;;;;;10.69;100.00;97071.81;4987786;28;20232;-63
2023/07/06 00:42:22;;;;;;;4.23;3.93;;;;;;;10.67;100.00;97065.88;4988837;28;20331;-62
2023/07/06 00:44:53;;;;;;;4.90;4.43;;;;;;;10.67;100.00;97068.53;4994811;28;20229;-63
2023/07/06 00:47:30;;;;;;;4.50;4.20;;;;;;;10.71;100.00;97071.63;4994438;28;20207;-62
2023/07/06 00:50:02;;;;;;;4.53;4.00;;;;;;;10.68;100.00;97082.59;4994202;28;20197;-63
2023/07/06 00:52:31;;;;;;;4.00;3.80;;;;;;;10.67;100.00;97076.47;4988615;28;20785;-63
2023/07/06 00:55:01;;;;;;;3.87;3.57;;;;;;;10.70;100.00;97086.69;4992095;28;20237;-62
2023/07/06 00:57:29;;;;;;;4.10;3.77;;;;;;;10.75;100.00;97087.94;4992495;28;20212;-63
2023/07/06 00:59:57;;;;;;;4.40;4.00;;;;;;;10.80;100.00;97081.09;4994679;28;20877;-63
2023/07/06 01:02:27;;;;;;;4.07;3.70;;;;;;;10.89;100.00;97088.91;4996650;28;20229;-62
2023/07/06 01:04:55;;;;;;;4.27;3.87;;;;;;;10.89;100.00;97087.09;4990971;28;20320;-62
2023/07/06 01:07:25;;;;;;;4.20;3.90;;;;;;;10.90;100.00;97086.09;4989820;28;20309;-64
2023/07/06 01:09:54;;;;;;;3.70;3.50;;;;;;;10.93;100.00;97080.41;4998920;28;20263;-62
2023/07/06 01:12:24;;;;;;;4.33;4.03;;;;;;;10.95;100.00;97075.75;4994370;28;20231;-63
2023/07/06 01:14:52;;;;;;;3.83;3.53;;;;;;;10.98;100.00;97080.66;4994301;28;20252;-62
2023/07/06 01:17:24;;;;;;;4.37;4.07;;;;;;;10.96;100.00;97080.03;4999824;28;20669;-65
2023/07/06 01:20:12;;;;;;;3.70;3.50;;;;;;;10.99;100.00;97084.16;5000757;28;20304;-63
2023/07/06 01:22:57;;;;;;;4.20;3.90;;;;;;;10.93;100.00;97080.41;4992336;28;20224;-63
2023/07/06 01:25:37;;;;;;;5.00;3.93;;;;;;;10.98;100.00;97079.84;4990795;28;20232;-63
2023/07/06 01:28:19;;;;;;;4.30;3.93;;;;;;;10.93;100.00;97074.28;4997698;28;20205;-63
2023/07/06 01:31:19;;;;;;;4.10;3.80;;;;;;;10.92;100.00;97072.63;4998728;28;20201;-63
2023/07/06 01:33:52;;;;;;;4.27;3.87;;;;;;;10.96;100.00;97069.44;4990996;28;20209;-62
2023/07/06 01:36:23;;;;;;;4.10;3.80;;;;;;;10.82;100.00;97062.38;4998437;28;20201;-62
2023/07/06 01:39:11;;;;;;;4.03;3.73;;;;;;;10.86;100.00;97072.38;4993161;28;20228;-64
2023/07/06 01:41:40;;;;;;;4.13;3.83;;;;;;;10.85;100.00;97070.75;4990620;28;20497;-63
2023/07/06 01:44:09;;;;;;;5.10;3.87;;;;;;;10.83;100.00;97070.13;4998282;28;20244;-63
2023/07/06 01:46:39;;;;;;;3.60;3.40;;;;;;;10.86;100.00;97074.22;4996714;28;20209;-63
2023/07/06 01:49:07;;;;;;;4.87;4.37;;;;;;;10.84;100.00;97076.25;4995826;28;20204;-63
2023/07/06 01:51:39;;;;;;;6.40;3.97;;;;;;;10.79;100.00;97073.31;4991322;28;20260;-63
2023/07/06 01:54:11;;;;;;;4.30;4.00;;;;;;;10.81;100.00;97079.28;5002884;28;20774;-63
2023/07/06 01:56:48;;;;;;;3.97;3.70;;;;;;;10.82;100.00;97084.38;4993302;28;20233;-63
2023/07/06 01:59:19;;;;;;;4.80;4.40;;;;;;;10.81;100.00;97081.94;4996003;28;20231;-63
2023/07/06 02:01:52;;;;;;;3.67;3.47;;;;;;;10.75;100.00;97090.59;4995944;28;20229;-63
2023/07/06 02:04:20;;;;;;;4.20;3.90;;;;;;;10.66;100.00;97096.03;5002160;28;20307;-63
2023/07/06 02:06:53;;;;;;;4.17;3.47;;;;;;;10.61;100.00;97094.97;4997020;28;20205;-62
2023/07/06 02:09:21;;;;;;;4.10;3.80;;;;;;;10.45;100.00;97090.69;4994345;28;20201;-63
2023/07/06 02:11:51;;;;;;;4.23;3.83;;;;;;;10.38;100.00;97088.72;4992074;28;20229;-62
2023/07/06 02:14:20;;;;;;;4.03;3.83;;;;;;;10.30;100.00;97091.50;4997879;28;20205;-62
2023/07/06 02:16:50;;;;;;;4.47;4.17;;;;;;;10.31;100.00;97081.72;4993030;28;20296;-62
2023/07/06 02:19:20;;;;;;;3.40;3.20;;;;;;;10.29;100.00;97081.91;5001110;28;20205;-63
2023/07/06 02:21:49;;;;;;;4.30;4.00;;;;;;;10.23;100.00;97080.00;4993954;28;20882;-64
2023/07/06 02:24:17;;;;;;;5.17;3.70;;;;;;;10.19;100.00;97084.81;4996800;28;20269;-63
2023/07/06 02:26:45;;;;;;;4.00;3.70;;;;;;;10.11;100.00;97092.88;4993783;28;20210;-63
2023/07/06 02:29:14;;;;;;;5.83;4.27;;;;;;;10.12;100.00;97081.28;4993695;28;20213;-64
2023/07/06 02:31:42;;;;;;;4.73;4.40;;;;;;;10.08;100.00;97080.84;4996941;28;20227;-63
2023/07/06 02:34:11;;;;;;;4.40;4.00;;;;;;;10.06;100.00;97080.22;5000726;28;20228;-63
2023/07/06 02:36:39;;;;;;;4.40;4.10;;;;;;;10.05;100.00;97080.38;4999962;28;20232;-63
2023/07/06 02:39:07;;;;;;;4.00;3.60;;;;;;;10.02;100.00;97083.38;4987306;28;20288;-63
2023/07/06 02:41:35;;;;;;;4.13;3.83;;;;;;;10.01;100.00;97090.50;4990277;28;20672;-62
2023/07/06 02:44:03;;;;;;;4.77;4.27;;;;;;;9.97;100.00;97082.13;4995073;28;20617;-63
2023/07/06 02:46:30;;;;;;;4.40;4.10;;;;;;;9.85;100.00;97081.75;4999405;28;20220;-63
2023/07/06 02:48:58;;;;;;;4.53;4.13;;;;;;;9.77;100.00;97083.63;4998650;28;20205;-61
2023/07/06 02:51:29;;;;;;;4.50;4.20;;;;;;;9.70;100.00;97078.28;4993053;28;20314;-64
2023/07/06 02:53:57;;;;;;;4.10;3.80;;;;;;;9.63;100.00;97077.31;4990471;28;20198;-65
2023/07/06 02:56:26;;;;;;;4.10;3.90;;;;;;;9.60;100.00;97080.34;4994967;28;20682;-64
2023/07/06 02:58:54;;;;;;;4.23;3.93;;;;;;;9.55;100.00;97087.00;4989215;28;20232;-64
2023/07/06 03:01:22;;;;;;;4.17;3.90;;;;;;;9.52;100.00;97079.41;4996081;28;20336;-65
2023/07/06 03:03:51;;;;;;;4.47;4.13;;;;;;;9.59;100.00;97084.81;4998250;28;20340;-65
2023/07/06 03:06:18;;;;;;;5.03;4.63;;;;;;;9.56;100.00;97080.69;4999632;28;20369;-65
2023/07/06 03:08:47;;;;;;;5.33;4.43;;;;;;;9.47;100.00;97095.00;4995510;28;20205;-64
2023/07/06 03:11:16;;;;;;;4.70;4.23;;;;;;;9.41;100.00;97087.78;4990422;28;20307;-63
2023/07/06 03:13:43;;;;;;;4.77;4.33;;;;;;;9.43;100.00;97095.53;4993958;28;20209;-63
2023/07/06 03:16:11;;;;;;;4.77;4.37;;;;;;;9.43;100.00;97088.44;4998459;28;20208;-64
2023/07/06 03:18:41;;;;;;;4.87;4.57;;;;;;;9.40;100.00;97094.88;4996273;28;20284;-63
2023/07/06 03:21:11;;;;;;;5.00;4.60;;;;;;;9.41;100.00;97103.66;4994970;28;20209;-63
2023/07/06 03:23:38;;;;;;;4.47;4.07;;;;;;;9.38;100.00;97104.03;4992161;28;20275;-64
2023/07/06 03:26:08;;;;;;;5.00;4.57;;;;;;;9.35;100.00;97099.09;4993595;28;20236;-63
2023/07/06 03:28:36;;;;;;;4.33;4.03;;;;;;;9.40;100.00;97107.31;4992956;28;20614;-62
2023/07/06 03:31:03;;;;;;;4.77;4.47;;;;;;;9.42;100.00;97110.59;4992877;28;20688;-60
2023/07/06 03:33:31;;;;;;;6.40;4.60;;;;;;;9.50;100.00;97113.16;4991685;28;20232;-61
2023/07/06 03:35:59;;;;;;;9.77;4.60;;;;;;;9.33;100.00;97107.19;4997986;28;20228;-60
2023/07/06 03:38:27;;;;;;;4.77;4.40;;;;;;;9.41;100.00;97116.88;4996287;28;20205;-62
2023/07/06 03:40:55;;;;;;;4.70;4.37;;;;;;;9.46;100.00;97116.31;4986955;28;20216;-63
2023/07/06 03:43:24;;;;;;;4.20;3.90;;;;;;;9.47;100.00;97124.09;4990707;28;20367;-59
2023/07/06 03:45:51;;;;;;;4.20;3.80;;;;;;;9.50;100.00;97122.94;4992467;28;20240;-64
2023/07/06 03:48:21;;;;;;;4.50;4.10;;;;;;;9.54;100.00;97124.22;4993340;28;20323;-63
2023/07/06 03:50:52;;;;;;;4.70;4.30;;;;;;;9.59;100.00;97131.59;4988409;28;20300;-64
2023/07/06 03:53:21;;;;;;;5.13;4.30;;;;;;;9.62;100.00;97132.06;4992197;28;20205;-65
2023/07/06 03:55:53;;;;;;;4.53;4.20;;;;;;;9.66;100.00;97137.81;4989404;28;20299;-64
2023/07/06 03:58:21;;;;;;;4.60;4.30;;;;;;;9.65;100.00;97142.28;4990553;28;20209;-63
2023/07/06 04:00:50;;;;;;;4.50;4.10;;;;;;;9.59;100.00;97131.59;4992502;28;20271;-63
2023/07/06 04:03:18;;;;;;;5.00;4.57;;;;;;;9.65;100.00;97136.16;4991645;28;20237;-63
2023/07/06 04:05:47;;;;;;;5.00;4.70;;;;;;;9.72;100.00;97142.41;4991101;28;20237;-63
2023/07/06 04:08:17;;;;;;;5.17;4.77;;;;;;;9.78;100.00;97146.13;4987281;28;20209;-62
2023/07/06 04:10:45;;;;;;;5.27;4.97;;;;;;;9.84;100.00;97135.66;4990955;28;20303;-62
2023/07/06 04:13:14;;;;;;;4.70;4.30;;;;;;;9.88;100.00;97130.84;4991704;28;20348;-63
2023/07/06 04:15:46;;;;;;;4.50;4.10;;;;;;;9.90;100.00;97136.78;4993473;28;20577;-61
2023/07/06 04:18:16;;;;;;;4.47;4.07;;;;;;;9.83;100.00;97141.97;4992318;28;20287;-60
2023/07/06 04:20:44;;;;;;;4.63;4.07;;;;;;;9.97;100.00;97135.06;4990029;28;20217;-63
2023/07/06 04:23:12;;;;;;;4.50;4.20;;;;;;;10.08;100.00;97141.72;4998551;28;20227;-62
2023/07/06 04:25:40;;;;;;;4.77;4.47;;;;;;;10.20;100.00;97142.06;4993633;28;20324;-60
2023/07/06 04:28:10;;;;;;;5.13;4.70;;;;;;;10.35;100.00;97138.63;4992717;28;20831;-62
2023/07/06 04:30:40;;;;;;;5.03;4.60;;;;;;;10.45;100.00;97141.03;4992058;28;20224;-63
2023/07/06 04:33:10;;;;;;;5.30;4.90;;;;;;;10.52;100.00;97140.09;4997496;28;20225;-63
2023/07/06 04:35:41;;;;;;;5.37;4.97;;;;;;;10.55;100.00;97141.56;4996403;28;20233;-63
2023/07/06 04:38:10;;;;;;;4.87;4.57;;;;;;;10.68;100.00;97133.75;4988214;28;20201;-62
2023/07/06 04:40:38;;;;;;;4.93;4.53;;;;;;;10.90;100.00;97132.97;4987465;28;20264;-62
2023/07/06 04:43:06;;;;;;;5.10;4.80;;;;;;;11.06;100.00;97130.09;4993557;28;21031;-62
2023/07/06 04:45:33;;;;;;;5.27;4.87;;;;;;;11.21;100.00;97127.41;5002151;28;20681;-61
2023/07/06 04:48:03;;;;;;;5.70;4.43;;;;;;;11.26;100.00;97129.47;5002093;28;20213;-62
2023/07/06 04:50:31;;;;;;;4.67;4.37;;;;;;;11.45;100.00;97133.31;4997705;28;20787;-63
2023/07/06 04:53:02;;;;;;;5.40;5.00;;;;;;;11.54;100.00;97126.03;4992478;28;20224;-63
2023/07/06 04:55:31;;;;;;;5.17;4.77;;;;;;;11.68;100.00;97138.41;4995381;28;20673;-62
2023/07/06 04:58:00;;;;;;;5.17;4.70;;;;;;;11.93;100.00;97137.97;4993661;28;20201;-63
2023/07/06 05:00:31;;;;;;;7.70;4.10;;;;;;;12.12;100.00;97135.66;5002972;28;20316;-64
2023/07/06 05:03:02;;;;;;;5.13;4.70;;;;;;;12.33;100.00;97132.13;4999252;28;20312;-60
2023/07/06 05:05:33;;;;;;;4.60;4.30;;;;;;;12.39;100.00;97136.66;5000780;28;20307;-61
2023/07/06 05:08:02;;;;;;;5.17;4.67;;;;;;;12.53;100.00;97142.84;4992153;28;20201;-62
2023/07/06 05:10:30;;;;;;;4.77;4.30;;;;;;;12.54;100.00;97147.16;4997787;28;20685;-62
2023/07/06 05:12:57;;;;;;;7.33;4.57;;;;;;;12.69;100.00;97136.38;4994308;28;20371;-62
2023/07/06 05:15:25;;;;;;;5.23;4.70;;;;;;;12.92;100.00;97148.50;4996317;28;20206;-61
2023/07/06 05:17:54;;;;;;;5.00;4.60;;;;;;;12.90;100.00;97141.78;4999046;28;20332;-62
2023/07/06 05:20:22;;;;;;;5.20;4.80;;;;;;;13.09;100.00;97145.50;4999726;28;20211;-63
2023/07/06 05:22:50;;;;;;;5.00;4.60;;;;;;;13.25;100.00;97144.28;4991973;28;20248;-63
2023/07/06 05:25:20;;;;;;;5.40;5.00;;;;;;;13.12;100.00;97142.44;4998032;28;20632;-63
2023/07/06 05:27:48;;;;;;;4.80;4.40;;;;;;;13.30;100.00;97142.66;4995811;28;20228;-62
2023/07/06 05:30:16;;;;;;;7.43;5.17;;;;;;;13.47;100.00;97142.31;5001630;28;20228;-61
2023/07/06 05:32:49;;;;;;;5.30;4.90;;;;;;;13.49;100.00;97140.28;4997416;28;20225;-59
2023/07/06 05:35:17;;;;;;;6.27;5.80;;;;;;;13.63;100.00;97134.94;4994185;28;20267;-62
2023/07/06 05:37:45;;;;;;;5.37;4.97;;;;;;;13.85;100.00;97147.03;4997822;28;20220;-59
2023/07/06 05:40:13;;;;;;;5.20;4.70;;;;;;;13.69;100.00;97148.28;4994380;28;20299;-63
2023/07/06 05:42:42;;;;;;;5.57;5.07;;;;;;;13.55;100.00;97149.28;4996783;28;20228;-62
2023/07/06 05:45:09;;;;;;;5.37;4.90;;;;;;;13.74;100.00;97147.63;4998090;28;20228;-62
2023/07/06 05:47:37;;;;;;;5.57;5.03;;;;;;;14.00;100.00;97140.66;5000697;28;20275;-63
2023/07/06 05:50:06;;;;;;;5.60;5.10;;;;;;;14.33;100.00;97143.25;4999975;28;20209;-63
2023/07/06 05:52:34;;;;;;;6.07;5.57;;;;;;;14.22;100.00;97127.13;4997896;28;20647;-61
2023/07/06 05:55:02;;;;;;;5.17;4.77;;;;;;;14.41;100.00;97144.09;4993387;28;20300;-64
2023/07/06 05:57:29;;;;;;;5.33;4.93;;;;;;;14.39;100.00;97138.13;4994101;28;20209;-62
2023/07/06 05:59:58;;;;;;;6.47;5.97;;;;;;;14.65;100.00;97149.72;5000698;28;20623;-61
2023/07/06 06:02:27;;;;;;;4.77;4.47;;;;;;;14.72;100.00;97151.38;4996707;28;20232;-63
2023/07/06 06:04:55;;;;;;;5.20;4.83;;;;;;;14.88;100.00;97150.09;4999019;28;20201;-61
2023/07/06 06:07:23;;;;;;;5.73;5.00;;;;;;;15.01;100.00;97151.03;4993701;28;20319;-63
2023/07/06 06:09:50;;;;;;;5.00;4.60;;;;;;;15.13;100.00;97146.66;4990126;28;20339;-62
2023/07/06 06:12:19;;;;;;;4.83;4.47;;;;;;;15.29;100.00;97152.53;4993720;28;20657;-60
2023/07/06 06:14:47;;;;;;;5.77;4.87;;;;;;;15.24;100.00;97157.69;4998278;28;20211;-62
2023/07/06 06:17:18;;;;;;;5.47;5.07;;;;;;;15.34;100.00;97158.03;4999675;28;20205;-62
2023/07/06 06:19:46;;;;;;;5.07;4.57;;;;;;;15.22;100.00;97157.91;4999375;28;20212;-61
2023/07/06 06:22:16;;;;;;;5.67;4.53;;;;;;;15.35;100.00;97157.00;4992282;28;20236;-62
2023/07/06 06:24:44;;;;;;;5.80;4.63;;;;;;;15.36;100.00;97155.16;4994561;28;20272;-62
2023/07/06 06:27:14;;;;;;;4.13;3.77;;;;;;;15.61;100.00;97157.88;4996797;28;20253;-62
2023/07/06 06:29:43;;;;;;;4.20;3.90;;;;;;;15.85;100.00;97155.41;4999715;28;20264;-60
2023/07/06 06:32:11;;;;;;;4.70;4.27;;;;;;;16.07;100.00;97158.53;4995557;28;20220;-62
2023/07/06 06:34:41;;;;;;;6.93;4.30;;;;;;;16.10;100.00;97162.63;4999067;28;20254;-62
2023/07/06 06:37:10;;;;;;;5.37;3.90;;;;;;;16.27;100.00;97165.53;4997941;28;20209;-62
2023/07/06 06:39:39;;;;;;;5.33;4.83;;;;;;;15.89;100.00;97164.63;4999418;28;20205;-63
2023/07/06 06:42:07;;;;;;;3.80;3.53;;;;;;;16.13;100.00;97173.69;4992956;28;20278;-62
2023/07/06 06:44:36;;;;;;;4.20;3.90;;;;;;;16.13;100.00;97176.38;4992685;28;20209;-61
2023/07/06 06:47:04;;;;;;;4.53;4.13;;;;;;;16.09;100.00;97174.34;4999877;28;20283;-62
2023/07/06 06:49:33;;;;;;;5.13;4.53;;;;;;;16.47;100.00;97176.84;4994285;28;20208;-63
2023/07/06 06:52:03;;;;;;;3.87;3.50;;;;;;;16.59;100.00;97176.91;4990949;28;20240;-63
2023/07/06 06:54:32;;;;;;;4.17;3.80;;;;;;;16.65;100.00;97175.22;4997735;28;20197;-61
2023/07/06 06:57:01;;;;;;;4.50;4.10;;;;;;;16.75;100.00;97170.16;4989290;28;20212;-63
2023/07/06 06:59:28;;;;;;;6.63;4.10;;;;;;;17.00;100.00;97173.81;4998357;28;20239;-61
2023/07/06 07:02:01;;;;;;;6.90;4.60;;;;;;;17.00;100.00;97171.97;4998304;28;20235;-60
2023/07/06 07:04:33;;;;;;;4.70;4.30;;;;;;;17.31;100.00;97171.94;4997661;28;20212;-63
2023/07/06 07:07:03;;;;;;;5.57;3.90;;;;;;;17.07;100.00;97171.88;4989141;28;20857;-61
2023/07/06 07:09:32;;;;;;;4.60;4.00;;;;;;;17.29;100.00;97166.00;4998615;28;20201;-62
2023/07/06 07:11:59;;;;;;;3.77;3.53;;;;;;;17.59;100.00;97175.88;4990639;28;20843;-63
2023/07/06 07:14:29;;;;;;;4.53;4.13;;;;;;;17.90;100.00;97177.44;5000691;28;20723;-61
2023/07/06 07:16:57;;;;;;;4.30;4.00;;;;;;;17.94;100.00;97175.13;4997766;28;20263;-62
2023/07/06 07:19:25;;;;;;;4.93;4.00;;;;;;;18.02;100.00;97169.44;4995619;28;20217;-60
2023/07/06 07:21:53;;;;;;;3.77;3.47;;;;;;;18.04;100.00;97174.59;4991568;28;20248;-60
2023/07/06 07:24:22;;;;;;;4.27;3.53;;;;;;;18.18;100.00;97184.03;4995553;28;20225;-62
2023/07/06 07:26:50;;;;;;;4.40;3.97;;;;;;;18.10;100.00;97179.03;4990727;28;20201;-61
2023/07/06 07:29:19;;;;;;;3.30;2.97;;;;;;;18.30;100.00;97178.66;4997460;28;20616;-59
2023/07/06 07:31:48;;;;;;;3.87;3.20;;;;;;;18.59;100.00;97176.09;4997855;28;20245;-60
2023/07/06 07:34:16;;;;;;;3.43;2.83;;;;;;;18.56;90.90;97179.25;4998404;28;21044;-62
2023/07/06 07:36:44;;;;;;;4.37;3.30;;;;;;;18.60;87.67;97179.56;4992572;28;20209;-62
2023/07/06 07:39:14;;;;;;;2.80;2.60;;;;;;;18.78;84.34;97168.69;4994196;28;20324;-60
2023/07/06 07:41:45;;;;;;;4.33;2.30;;;;;;;18.77;77.07;97174.28;4991874;28;20304;-62
2023/07/06 07:44:15;;;;;;;2.90;2.70;;;;;;;18.99;79.69;97169.13;4999609;28;20288;-61
2023/07/06 07:46:43;;;;;;;2.90;2.70;;;;;;;19.12;78.24;97167.19;4999421;28;20707;-62
2023/07/06 07:49:11;;;;;;;19.40;3.80;;;;;;;18.87;77.50;97176.38;4998461;28;20233;-61
2023/07/06 07:51:39;;;;;;;2.80;2.60;;;;;;;19.04;76.85;97168.41;4991174;28;20225;-60
2023/07/06 07:54:07;;;;;;;2.73;2.10;;;;;;;18.96;73.59;97174.94;4993959;28;20259;-58
2023/07/06 07:56:35;;;;;;;3.30;3.00;;;;;;;19.12;69.05;97172.56;4994065;28;20213;-62
2023/07/06 07:59:04;;;;;;;2.97;2.73;;;;;;;19.21;71.71;97171.94;4996365;28;20251;-63
2023/07/06 08:01:32;;;;;;;2.73;2.53;;;;;;;19.13;67.17;97171.50;4999339;28;20600;-62
2023/07/06 08:04:00;;;;;;;2.93;2.73;;;;;;;18.92;67.32;97173.78;4993775;28;20209;-60
2023/07/06 08:06:28;;;;;;;3.50;2.73;;;;;;;18.85;68.01;97171.22;4994154;28;20215;-63
2023/07/06 08:08:55;;;;;;;2.37;2.27;;;;;;;18.90;70.30;97170.53;4996040;28;20229;-63
2023/07/06 08:11:24;;;;;;;4.53;2.70;;;;;;;19.05;64.26;97175.41;4990451;28;20900;-61
2023/07/06 08:13:55;;;;;;;2.67;2.43;;;;;;;19.36;68.13;97176.78;4995830;28;20288;-61
2023/07/06 08:16:24;;;;;;;2.60;2.40;;;;;;;19.35;66.63;97177.84;4996517;28;20209;-62
2023/07/06 08:18:53;;;;;;;2.50;2.30;;;;;;;19.59;65.15;97175.06;4999748;28;20411;-57
2023/07/06 08:21:41;;;;;;;3.60;2.80;;;;;;;19.73;66.80;97166.66;4996873;28;20236;-61
2023/07/06 08:24:29;;;;;;;2.53;2.30;;;;;;;20.04;60.49;97170.69;5001312;28;20214;-62
2023/07/06 08:26:57;;;;;;;4.77;2.87;;;;;;;20.02;56.73;97163.94;4996880;28;20258;-61
2023/07/06 08:29:26;;;;;;;2.60;2.00;;;;;;;20.03;62.72;97171.75;4998631;28;20839;-63
2023/07/06 08:31:56;;;;;;;2.33;2.23;;;;;;;20.08;64.70;97162.94;5000612;28;20216;-62
2023/07/06 08:34:26;;;;;;;2.67;2.47;;;;;;;20.39;63.66;97163.38;5001390;28;20248;-61
2023/07/06 08:36:54;;;;;;;3.10;2.60;;;;;;;20.32;56.79;97176.22;4994375;28;20383;-61
2023/07/06 08:39:22;;;;;;;3.27;2.87;;;;;;;19.93;58.87;97153.59;4999925;28;20201;-62
2023/07/06 08:41:51;;;;;;;2.80;2.13;;;;;;;20.00;59.55;97171.44;4991089;28;20351;-61
2023/07/06 08:44:20;;;;;;;2.67;2.47;;;;;;;19.96;61.62;97160.34;5000409;28;20295;-64
2023/07/06 08:46:48;;;;;;;4.00;2.83;;;;;;;19.85;60.81;97169.28;5002885;28;20239;-61
2023/07/06 08:49:26;;;;;;;3.40;2.90;;;;;;;19.89;64.57;97160.50;5000016;28;20217;-61
2023/07/06 08:52:02;;;;;;;3.57;2.73;;;;;;;20.03;64.10;97154.81;4994700;28;20823;-61
2023/07/06 08:54:30;;;;;;;3.20;3.00;;;;;;;20.33;64.69;97157.13;4998377;28;20205;-58
2023/07/06 08:57:00;;;;;;;3.23;2.93;;;;;;;20.51;66.57;97157.91;4994582;28;20201;-60
2023/07/06 08:59:36;;;;;;;3.87;3.33;;;;;;;20.75;62.95;97155.78;5000054;28;20233;-61
2023/07/06 09:02:16;;;;;;;3.17;2.97;;;;;;;20.81;62.80;97153.97;5002425;28;20727;-62
2023/07/06 09:04:47;;;;;;;3.17;2.87;;;;;;;20.88;62.69;97149.25;4997501;28;20204;-62
2023/07/06 09:07:15;;;;;;;3.83;2.63;;;;;;;20.59;59.43;97152.09;4993007;28;20209;-60
2023/07/06 09:09:44;;;;;;;2.90;2.70;;;;;;;20.93;61.21;97145.78;4999828;28;20708;-59
2023/07/06 09:12:20;;;;;;;2.87;2.67;;;;;;;21.11;59.46;97148.16;4993476;28;20724;-62
2023/07/06 09:14:50;;;;;;;3.73;2.57;;;;;;;20.84;58.24;97137.34;4998056;28;20201;-62
2023/07/06 09:17:19;;;;;;;3.13;2.57;;;;;;;20.66;59.88;97139.25;5000951;28;20268;-63
2023/07/06 09:19:48;;;;;;;2.60;2.50;;;;;;;20.51;59.15;97145.25;4996741;28;20212;-60
2023/07/06 09:22:18;;;;;;;4.17;2.77;;;;;;;20.52;59.56;97136.13;4990085;28;20267;-61
2023/07/06 09:24:46;;;;;;;3.70;3.40;;;;;;;20.61;58.67;97139.19;5000265;28;20228;-61
2023/07/06 09:27:18;;;;;;;2.97;2.77;;;;;;;20.77;61.46;97136.66;4993034;28;20218;-61
2023/07/06 09:29:56;;;;;;;3.03;2.73;;;;;;;21.00;62.07;97134.81;5001589;28;20767;-61
2023/07/06 09:32:24;;;;;;;3.60;3.40;;;;;;;21.49;59.78;97137.44;4999263;28;20248;-60
2023/07/06 09:34:55;;;;;;;4.10;2.90;;;;;;;21.66;58.53;97144.66;4991245;28;20209;-61
2023/07/06 09:37:23;;;;;;;4.27;2.77;;;;;;;21.54;60.07;97134.78;5001030;28;20587;-61
2023/07/06 09:39:59;;;;;;;3.30;2.87;;;;;;;21.88;62.42;97139.16;4996670;28;20217;-61
2023/07/06 09:42:28;;;;;;;3.83;2.50;;;;;;;21.87;56.70;97136.72;4991919;28;20307;-60
2023/07/06 09:44:56;;;;;;;3.63;3.10;;;;;;;22.18;55.89;97136.91;4996357;28;20207;-62
2023/07/06 09:47:23;;;;;;;3.30;3.00;;;;;;;22.35;57.50;97123.25;5001935;28;20216;-61
2023/07/06 09:49:55;;;;;;;3.33;3.13;;;;;;;22.47;54.42;97128.47;4999051;28;20228;-62
2023/07/06 09:52:24;;;;;;;2.83;2.63;;;;;;;22.54;54.23;97132.56;5001234;28;20705;-63
2023/07/06 09:54:57;;;;;;;3.83;3.23;;;;;;;22.78;53.93;97136.72;4999009;28;20240;-62
2023/07/06 09:57:26;;;;;;;2.70;2.50;;;;;;;22.92;54.53;97121.63;4991251;28;20530;-62
2023/07/06 09:59:54;;;;;;;2.90;2.63;;;;;;;23.52;51.87;97123.13;5002902;28;20224;-61
2023/07/06 10:02:27;;;;;;;3.20;3.00;;;;;;;23.92;52.42;97131.50;5001432;28;20279;-62
2023/07/06 10:05:01;;;;;;;3.30;3.00;;;;;;;24.20;51.91;97123.91;4998293;28;20605;-62
2023/07/06 10:07:39;;;;;;;4.93;2.80;;;;;;;24.16;50.12;97128.25;4990860;28;20220;-61
2023/07/06 10:10:14;;;;;;;2.60;2.40;;;;;;;24.35;48.23;97126.59;4997766;28;20874;-60
2023/07/06 10:12:46;;;;;;;3.03;2.73;;;;;;;24.01;46.80;97129.06;4992827;28;20228;-62
2023/07/06 10:15:20;;;;;;;2.97;2.77;;;;;;;23.89;47.77;97123.94;5000471;28;20216;-62
2023/07/06 10:17:51;;;;;;;3.00;2.80;;;;;;;23.42;47.85;97121.22;5002583;28;20229;-62
2023/07/06 10:20:22;;;;;;;3.20;2.97;;;;;;;22.72;49.30;97124.25;4995008;28;20211;-61
2023/07/06 10:23:06;;;;;;;3.00;2.80;;;;;;;22.38;48.57;97126.25;4996499;28;20221;-62
2023/07/06 10:25:37;;;;;;;3.37;3.07;;;;;;;22.45;51.20;97117.91;4996833;28;20232;-62
2023/07/06 10:28:10;;;;;;;3.47;3.10;;;;;;;22.60;49.63;97122.59;4990023;28;20201;-62
2023/07/06 10:30:46;;;;;;;4.40;2.70;;;;;;;22.35;50.70;97129.47;4999336;28;20236;-61
2023/07/06 10:33:18;;;;;;;3.00;2.80;;;;;;;22.10;50.73;97127.41;4995526;28;20263;-61
2023/07/06 10:35:50;;;;;;;3.83;2.77;;;;;;;21.98;52.21;97130.34;4997351;28;20294;-62
2023/07/06 10:38:19;;;;;;;3.13;2.60;;;;;;;21.93;51.11;97119.50;4994581;28;20578;-60
2023/07/06 10:40:51;;;;;;;2.77;2.57;;;;;;;21.92;51.84;97132.19;4993190;28;20233;-62
2023/07/06 10:43:21;;;;;;;3.17;2.97;;;;;;;21.90;51.88;97125.41;4995700;28;20288;-61
2023/07/06 10:45:50;;;;;;;4.17;2.60;;;;;;;21.84;50.49;97127.28;5000836;28;20211;-62
2023/07/06 10:48:28;;;;;;;2.80;2.60;;;;;;;21.86;52.35;97130.50;4995700;28;20208;-63
2023/07/06 10:51:20;;;;;;;3.03;2.83;;;;;;;22.29;51.54;97127.81;4996833;28;20263;-58
2023/07/06 10:53:51;;;;;;;3.50;2.67;;;;;;;22.65;51.03;97114.50;4991707;28;20228;-63
2023/07/06 10:56:21;;;;;;;3.30;3.00;;;;;;;22.64;48.49;97115.59;4991101;28;20209;-60
2023/07/06 10:58:55;;;;;;;3.53;3.20;;;;;;;22.55;48.04;97118.00;4998597;28;20869;-62
2023/07/06 11:01:24;;;;;;;2.80;2.60;;;;;;;22.38;48.49;97107.38;4998462;28;20229;-62
2023/07/06 11:03:53;;;;;;;4.77;3.00;;;;;;;22.21;48.68;97114.81;4996481;28;20292;-59
2023/07/06 11:06:56;;;;;;;3.97;2.90;;;;;;;22.25;48.66;97116.75;4995495;28;20284;-62
2023/07/06 11:09:25;;;;;;;2.97;2.63;;;;;;;22.63;49.93;97116.66;4989448;28;20315;-62
2023/07/06 11:12:16;;;;;;;3.57;3.13;;;;;;;22.73;48.27;97115.06;4991466;28;20321;-62
2023/07/06 11:14:44;;;;;;;4.37;2.50;;;;;;;22.91;47.97;97111.09;4994397;28;20228;-60
2023/07/06 11:17:23;;;;;;;3.77;2.87;;;;;;;23.05;47.96;97103.28;4999676;28;20276;-60
2023/07/06 11:19:55;;;;;;;5.63;2.70;;;;;;;22.73;46.72;97109.66;4998452;28;20871;-63
2023/07/06 11:22:24;;;;;;;4.67;2.70;;;;;;;22.58;47.51;97110.44;4994229;28;20232;-63
2023/07/06 11:24:57;;;;;;;3.23;2.90;;;;;;;22.52;46.81;97113.09;4995939;28;20627;-62
2023/07/06 11:27:29;;;;;;;2.40;2.27;;;;;;;22.35;47.09;97107.06;4992428;28;20205;-62
2023/07/06 11:30:03;;;;;;;2.90;2.70;;;;;;;22.32;46.79;97111.09;4995776;28;20692;-62
2023/07/06 11:32:37;;;;;;;2.73;2.53;;;;;;;22.65;47.66;97108.31;4993637;28;20388;-62
2023/07/06 11:35:14;;;;;;;3.40;3.10;;;;;;;22.92;46.19;97101.91;4994373;28;20205;-60
2023/07/06 11:37:53;;;;;;;3.37;3.17;;;;;;;23.26;47.96;97098.75;4992595;28;20627;-62
2023/07/06 11:40:38;;;;;;;2.80;2.60;;;;;;;23.35;47.69;97097.16;4992658;28;20827;-62
2023/07/06 11:43:19;;;;;;;3.17;2.93;;;;;;;23.22;45.76;97105.75;4990009;28;20784;-61
2023/07/06 11:45:53;;;;;;;2.80;2.60;;;;;;;22.72;46.44;97099.94;5000074;28;20200;-62